createdAt,value
2019-01-08T00:00:06.209Z,0
2019-01-08T00:00:49.703Z,0
2019-01-08T00:02:04.382Z,0
2019-01-08T00:03:04.498Z,0
2019-01-08T00:03:49.748Z,0
2019-01-08T00:04:49.759Z,0
2019-01-08T00:05:49.853Z,0
2019-01-08T00:06:49.876Z,0
2019-01-08T00:07:49.807Z,0
2019-01-08T00:08:49.879Z,0
2019-01-08T00:09:49.839Z,0
2019-01-08T00:10:49.851Z,0
2019-01-08T00:11:49.863Z,0
2019-01-08T00:12:49.886Z,0
2019-01-08T00:14:04.558Z,0
2019-01-08T00:14:49.912Z,0
2019-01-08T00:15:49.928Z,0
2019-01-08T00:16:49.943Z,0
2019-01-08T00:17:49.955Z,0
2019-01-08T00:18:49.971Z,0
2019-01-08T00:19:50.085Z,0
2019-01-08T00:20:50.001Z,0
2019-01-08T00:21:50.027Z,0
2019-01-08T00:22:50.083Z,0
2019-01-08T00:23:50.045Z,0
2019-01-08T00:25:04.726Z,0
2019-01-08T00:26:04.740Z,0
2019-01-08T00:27:04.753Z,0
2019-01-08T00:28:04.784Z,0
2019-01-08T00:28:50.641Z,0
2019-01-08T00:29:50.134Z,0
2019-01-08T00:30:50.177Z,0
2019-01-08T00:32:50.194Z,0
2019-01-08T00:34:04.862Z,0
2019-01-08T00:34:50.207Z,0
2019-01-08T00:35:50.226Z,0
2019-01-08T00:36:50.241Z,0
2019-01-08T00:37:50.258Z,0
2019-01-08T00:38:50.276Z,0
2019-01-08T00:39:50.286Z,0
2019-01-08T00:40:50.304Z,0
2019-01-08T00:41:50.315Z,0
2019-01-08T00:43:04.993Z,0
2019-01-08T00:43:50.411Z,0
2019-01-08T00:44:50.359Z,0
2019-01-08T00:45:50.375Z,0
2019-01-08T00:47:05.060Z,0
2019-01-08T00:48:50.420Z,0
2019-01-08T00:50:05.179Z,0
2019-01-08T00:50:50.451Z,0
2019-01-08T00:51:50.466Z,0
2019-01-08T00:52:50.481Z,0
2019-01-08T00:53:50.603Z,0
2019-01-08T00:54:50.518Z,0
2019-01-08T00:55:50.532Z,0
2019-01-08T00:56:50.539Z,0
2019-01-08T00:57:50.563Z,0
2019-01-08T00:58:58.523Z,0
2019-01-08T00:59:50.588Z,0
2019-01-08T01:00:50.608Z,0
2019-01-08T01:03:05.343Z,0
2019-01-08T01:03:50.649Z,0
2019-01-08T01:04:50.661Z,0
2019-01-08T01:06:05.337Z,0
2019-01-08T01:06:50.698Z,0
2019-01-08T01:07:50.713Z,0
2019-01-08T01:08:50.724Z,0
2019-01-08T01:09:50.735Z,0
2019-01-08T01:11:50.767Z,0
2019-01-08T01:12:50.784Z,0
2019-01-08T01:14:05.461Z,0
2019-01-08T01:14:50.810Z,0
2019-01-08T01:15:50.829Z,0
2019-01-08T01:16:50.843Z,0
2019-01-08T01:17:50.858Z,0
2019-01-08T01:18:50.879Z,0
2019-01-08T01:19:50.892Z,0
2019-01-08T01:20:50.901Z,0
2019-01-08T01:22:05.582Z,0
2019-01-08T01:22:50.932Z,0
2019-01-08T01:23:50.948Z,0
2019-01-08T01:24:50.965Z,0
2019-01-08T01:25:51.070Z,0
2019-01-08T01:26:50.999Z,0
2019-01-08T01:27:51.007Z,0
2019-01-08T01:28:51.021Z,0
2019-01-08T01:29:51.039Z,0
2019-01-08T01:31:05.716Z,0
2019-01-08T01:31:51.071Z,0
2019-01-08T01:32:51.082Z,0
2019-01-08T01:34:05.760Z,0
2019-01-08T01:34:51.110Z,0
2019-01-08T01:35:51.132Z,0
2019-01-08T01:37:05.806Z,0
2019-01-08T01:37:51.160Z,0
2019-01-08T01:38:51.279Z,0
2019-01-08T01:39:51.205Z,0
2019-01-08T01:40:51.203Z,0
2019-01-08T01:41:51.307Z,0
2019-01-08T01:42:51.238Z,0
2019-01-08T01:43:51.250Z,0
2019-01-08T01:44:51.267Z,0
2019-01-08T01:46:05.940Z,0
2019-01-08T01:46:51.296Z,0
2019-01-08T01:48:05.978Z,0
2019-01-08T01:49:05.985Z,0
2019-01-08T01:49:51.336Z,0
2019-01-08T01:50:51.359Z,0
2019-01-08T01:52:05.791Z,0
2019-01-08T01:54:51.413Z,0
2019-01-08T01:55:51.438Z,0
2019-01-08T01:56:51.444Z,0
2019-01-08T01:57:51.510Z,0
2019-01-08T01:58:51.472Z,0
2019-01-08T01:59:51.489Z,0
2019-01-08T02:00:51.502Z,0
2019-01-08T02:01:51.519Z,0
2019-01-08T02:02:51.542Z,0
2019-01-08T02:04:06.210Z,0
2019-01-08T02:04:51.577Z,0
2019-01-08T02:05:51.578Z,0
2019-01-08T02:06:51.594Z,0
2019-01-08T02:09:06.288Z,0
2019-01-08T02:09:51.639Z,0
2019-01-08T02:11:51.679Z,0
2019-01-08T02:12:51.685Z,0
2019-01-08T02:13:51.696Z,0
2019-01-08T02:14:51.715Z,0
2019-01-08T02:15:51.729Z,0
2019-01-08T02:16:51.751Z,0
2019-01-08T02:17:51.760Z,0
2019-01-08T02:18:51.776Z,0
2019-01-08T02:19:51.795Z,0
2019-01-08T02:20:51.810Z,0
2019-01-08T02:23:51.854Z,0
2019-01-08T02:25:06.532Z,0
2019-01-08T02:25:51.881Z,0
2019-01-08T02:26:51.929Z,0
2019-01-08T02:27:51.910Z,0
2019-01-08T02:28:51.925Z,0
2019-01-08T02:29:51.939Z,0
2019-01-08T02:30:51.963Z,0
2019-01-08T02:31:51.984Z,0
2019-01-08T02:33:06.651Z,0
2019-01-08T02:33:52.002Z,0
2019-01-08T02:34:52.017Z,0
2019-01-08T02:35:51.794Z,0
2019-01-08T02:37:06.712Z,0
2019-01-08T02:38:52.086Z,0
2019-01-08T02:39:52.093Z,0
2019-01-08T02:41:06.842Z,0
2019-01-08T02:41:52.531Z,0
2019-01-08T02:42:52.154Z,0
2019-01-08T02:43:52.269Z,0
2019-01-08T02:44:52.752Z,0
2019-01-08T02:45:52.182Z,0
2019-01-08T02:46:52.589Z,0
2019-01-08T02:47:52.215Z,0
2019-01-08T02:49:06.894Z,0
2019-01-08T02:50:06.910Z,0
2019-01-08T02:50:52.269Z,0
2019-01-08T02:51:52.275Z,0
2019-01-08T02:52:52.295Z,0
2019-01-08T02:54:06.998Z,0
2019-01-08T02:54:52.890Z,0
2019-01-08T02:56:06.997Z,0
2019-01-08T02:57:07.016Z,0
2019-01-08T02:57:52.367Z,0
2019-01-08T02:58:52.383Z,0
2019-01-08T03:00:08.349Z,0
2019-01-08T03:00:52.411Z,0
2019-01-08T03:01:52.429Z,0
2019-01-08T03:02:52.442Z,0
2019-01-08T03:03:52.457Z,0
2019-01-08T03:04:54.451Z,0
2019-01-08T03:05:52.487Z,0
2019-01-08T03:06:52.551Z,0
2019-01-08T03:07:52.523Z,0
2019-01-08T03:08:52.559Z,0
2019-01-08T03:09:52.580Z,0
2019-01-08T03:10:52.569Z,0
2019-01-08T03:12:07.246Z,0
2019-01-08T03:12:52.594Z,0
2019-01-08T03:13:52.617Z,0
2019-01-08T03:14:52.635Z,0
2019-01-08T03:15:52.643Z,0
2019-01-08T03:17:07.327Z,0
2019-01-08T03:17:52.674Z,0
2019-01-08T03:19:07.353Z,0
2019-01-08T03:19:52.711Z,0
2019-01-08T03:20:52.716Z,0
2019-01-08T03:22:07.395Z,0
2019-01-08T03:22:52.749Z,0
2019-01-08T03:24:07.426Z,0
2019-01-08T03:24:52.783Z,0
2019-01-08T03:25:52.797Z,0
2019-01-08T03:27:52.829Z,0
2019-01-08T03:28:52.844Z,0
2019-01-08T03:29:52.855Z,0
2019-01-08T03:30:52.904Z,0
2019-01-08T03:32:07.573Z,0
2019-01-08T03:32:52.917Z,0
2019-01-08T03:33:52.917Z,0
2019-01-08T03:34:52.937Z,0
2019-01-08T03:35:52.953Z,0
2019-01-08T03:37:07.627Z,0
2019-01-08T03:38:07.653Z,0
2019-01-08T03:38:52.745Z,0
2019-01-08T03:39:53.008Z,0
2019-01-08T03:41:07.769Z,0
2019-01-08T03:41:53.048Z,0
2019-01-08T03:42:53.057Z,0
2019-01-08T03:44:07.820Z,0
2019-01-08T03:44:53.094Z,0
2019-01-08T03:45:53.102Z,0
2019-01-08T03:46:53.116Z,0
2019-01-08T03:47:53.154Z,0
2019-01-08T03:48:53.147Z,0
2019-01-08T03:49:53.165Z,0
2019-01-08T03:50:53.180Z,0
2019-01-08T03:52:07.859Z,0
2019-01-08T03:52:53.215Z,0
2019-01-08T03:53:53.231Z,0
2019-01-08T03:54:53.242Z,0
2019-01-08T03:56:53.270Z,0
2019-01-08T03:57:53.287Z,0
2019-01-08T03:58:53.299Z,0
2019-01-08T04:00:07.984Z,0
2019-01-08T04:00:53.334Z,0
2019-01-08T04:01:53.352Z,0
2019-01-08T04:02:53.367Z,0
2019-01-08T04:03:53.137Z,0
2019-01-08T04:04:53.398Z,0
2019-01-08T04:05:53.410Z,0
2019-01-08T04:06:53.423Z,0
2019-01-08T04:08:08.104Z,0
2019-01-08T04:08:53.452Z,0
2019-01-08T04:10:08.134Z,0
2019-01-08T04:10:53.487Z,0
2019-01-08T04:12:53.515Z,0
2019-01-08T04:13:53.550Z,0
2019-01-08T04:14:53.551Z,0
2019-01-08T04:16:08.229Z,0
2019-01-08T04:17:53.604Z,0
2019-01-08T04:18:53.609Z,0
2019-01-08T04:19:53.628Z,0
2019-01-08T04:20:53.739Z,0
2019-01-08T04:21:53.657Z,0
2019-01-08T04:22:53.671Z,0
2019-01-08T04:23:53.687Z,0
2019-01-08T04:24:53.704Z,0
2019-01-08T04:25:53.720Z,0
2019-01-08T04:26:53.745Z,0
2019-01-08T04:28:08.408Z,0
2019-01-08T04:28:53.771Z,0
2019-01-08T04:30:12.363Z,0
2019-01-08T04:30:53.796Z,0
2019-01-08T04:32:08.471Z,0
2019-01-08T04:32:53.824Z,0
2019-01-08T04:33:53.841Z,0
2019-01-08T04:34:53.860Z,0
2019-01-08T04:35:53.873Z,0
2019-01-08T04:36:53.885Z,0
2019-01-08T04:37:53.910Z,0
2019-01-08T04:38:53.916Z,0
2019-01-08T04:39:53.931Z,0
2019-01-08T04:40:53.949Z,0
2019-01-08T04:41:53.969Z,0
2019-01-08T04:43:08.638Z,0
2019-01-08T04:44:08.655Z,0
2019-01-08T04:44:54.015Z,0
2019-01-08T04:45:54.025Z,0
2019-01-08T04:47:08.704Z,0
2019-01-08T04:47:54.062Z,0
2019-01-08T04:48:54.071Z,0
2019-01-08T04:50:54.102Z,0
2019-01-08T04:51:54.116Z,0
2019-01-08T04:52:54.139Z,0
2019-01-08T04:53:54.150Z,0
2019-01-08T04:54:54.168Z,0
2019-01-08T04:55:54.183Z,0
2019-01-08T04:57:08.855Z,0
2019-01-08T04:58:08.870Z,0
2019-01-08T04:59:08.885Z,0
2019-01-08T05:00:01.371Z,0
2019-01-08T05:00:54.252Z,0
2019-01-08T05:01:54.267Z,0
2019-01-08T05:04:54.316Z,0
2019-01-08T05:05:55.987Z,0
2019-01-08T05:06:54.352Z,0
2019-01-08T05:07:54.382Z,0
2019-01-08T05:08:54.378Z,0
2019-01-08T05:09:54.390Z,0
2019-01-08T05:10:54.413Z,0
2019-01-08T05:12:09.085Z,0
2019-01-08T05:12:55.307Z,0
2019-01-08T05:13:54.455Z,0
2019-01-08T05:14:54.482Z,0
2019-01-08T05:16:54.520Z,0
2019-01-08T05:17:54.511Z,0
2019-01-08T05:19:09.192Z,0
2019-01-08T05:20:54.563Z,0
2019-01-08T05:21:54.630Z,0
2019-01-08T05:22:54.589Z,0
2019-01-08T05:23:54.602Z,0
2019-01-08T05:25:09.287Z,0
2019-01-08T05:25:54.630Z,0
2019-01-08T05:26:54.647Z,0
2019-01-08T05:27:54.663Z,0
2019-01-08T05:28:54.738Z,0
2019-01-08T05:29:54.695Z,0
2019-01-08T05:32:09.382Z,0
2019-01-08T05:32:54.744Z,0
2019-01-08T05:33:55.038Z,0
2019-01-08T05:35:09.436Z,0
2019-01-08T05:35:54.787Z,0
2019-01-08T05:36:54.797Z,0
2019-01-08T05:37:54.811Z,0
2019-01-08T05:39:54.850Z,0
2019-01-08T05:40:54.855Z,0
2019-01-08T05:41:54.874Z,0
2019-01-08T05:42:54.885Z,0
2019-01-08T05:45:09.578Z,0
2019-01-08T05:45:54.934Z,0
2019-01-08T05:46:54.950Z,0
2019-01-08T05:47:54.961Z,0
2019-01-08T05:48:54.980Z,0
2019-01-08T05:49:54.989Z,0
2019-01-08T05:51:09.678Z,0
2019-01-08T05:51:55.019Z,0
2019-01-08T05:52:55.041Z,0
2019-01-08T05:53:55.052Z,0
2019-01-08T05:54:55.066Z,0
2019-01-08T05:55:55.081Z,0
2019-01-08T05:56:55.100Z,0
2019-01-08T05:57:55.109Z,0
2019-01-08T05:59:09.790Z,0
2019-01-08T06:00:18.613Z,0
2019-01-08T06:02:09.845Z,0
2019-01-08T06:02:55.194Z,0
2019-01-08T06:03:55.203Z,0
2019-01-08T06:05:09.891Z,0
2019-01-08T06:06:09.893Z,0
2019-01-08T06:07:09.912Z,0
2019-01-08T06:07:55.260Z,0
2019-01-08T06:08:55.675Z,0
2019-01-08T06:09:55.299Z,0
2019-01-08T06:10:55.309Z,0
2019-01-08T06:11:55.325Z,0
2019-01-08T06:12:55.334Z,0
2019-01-08T06:13:55.358Z,0
2019-01-08T06:14:55.367Z,0
2019-01-08T06:15:55.386Z,0
2019-01-08T06:16:55.402Z,0
2019-01-08T06:17:55.416Z,0
2019-01-08T06:18:55.437Z,0
2019-01-08T06:20:55.463Z,0
2019-01-08T06:22:10.140Z,0
2019-01-08T06:23:55.506Z,0
2019-01-08T06:24:55.520Z,0
2019-01-08T06:25:55.539Z,0
2019-01-08T06:26:55.552Z,0
2019-01-08T06:27:55.566Z,0
2019-01-08T06:28:55.335Z,0
2019-01-08T06:29:55.599Z,0
2019-01-08T06:31:10.275Z,0
2019-01-08T06:31:55.632Z,0
2019-01-08T06:32:55.645Z,0
2019-01-08T06:36:55.458Z,0
2019-01-08T06:37:55.721Z,0
2019-01-08T06:38:55.735Z,0
2019-01-08T06:39:55.751Z,0
2019-01-08T06:41:02.403Z,0
2019-01-08T06:41:55.782Z,0
2019-01-08T06:42:55.793Z,0
2019-01-08T06:43:55.814Z,0
2019-01-08T06:44:55.828Z,4
2019-01-08T06:45:55.941Z,4
2019-01-08T06:46:55.858Z,4
2019-01-08T06:47:55.891Z,4
2019-01-08T06:49:10.553Z,4
2019-01-08T06:49:55.911Z,0
2019-01-08T06:51:03.327Z,4
2019-01-08T06:51:55.942Z,4
2019-01-08T06:52:55.946Z,8
2019-01-08T06:54:10.627Z,4
2019-01-08T06:55:55.994Z,8
2019-01-08T06:57:10.421Z,8
2019-01-08T06:57:56.026Z,8
2019-01-08T06:58:56.039Z,12
2019-01-08T06:59:56.063Z,12
2019-01-08T07:00:56.072Z,12
2019-01-08T07:01:56.176Z,12
2019-01-08T07:03:10.864Z,16
2019-01-08T07:03:56.124Z,16
2019-01-08T07:05:10.791Z,20
2019-01-08T07:08:56.203Z,40
2019-01-08T07:10:10.873Z,56
2019-01-08T07:10:56.324Z,60
2019-01-08T07:11:56.245Z,76
2019-01-08T07:12:56.257Z,96
2019-01-08T07:13:56.273Z,100
2019-01-08T07:14:56.287Z,104
2019-01-08T07:16:56.419Z,132
2019-01-08T07:18:10.993Z,108
2019-01-08T07:18:56.356Z,136
2019-01-08T07:19:56.381Z,132
2019-01-08T07:20:56.373Z,132
2019-01-08T07:21:56.395Z,144
2019-01-08T07:22:56.460Z,160
2019-01-08T07:23:56.427Z,156
2019-01-08T07:24:56.437Z,152
2019-01-08T07:26:11.116Z,208
2019-01-08T07:26:56.468Z,212
2019-01-08T07:27:56.482Z,240
2019-01-08T07:28:56.498Z,256
2019-01-08T07:29:56.521Z,328
2019-01-08T07:30:56.536Z,408
2019-01-08T07:32:56.557Z,564
2019-01-08T07:33:56.574Z,584
2019-01-08T07:34:56.587Z,580
2019-01-08T07:36:11.265Z,612
2019-01-08T07:36:56.377Z,596
2019-01-08T07:38:11.298Z,576
2019-01-08T07:38:56.656Z,596
2019-01-08T07:40:56.690Z,580
2019-01-08T07:42:11.358Z,660
2019-01-08T07:43:56.733Z,484
2019-01-08T07:44:56.756Z,508
2019-01-08T07:45:56.764Z,488
2019-01-08T07:46:56.779Z,516
2019-01-08T07:47:56.792Z,612
2019-01-08T07:48:56.805Z,596
2019-01-08T07:49:56.819Z,656
2019-01-08T07:50:56.843Z,624
2019-01-08T07:51:56.864Z,532
2019-01-08T07:53:11.527Z,596
2019-01-08T07:54:11.545Z,596
2019-01-08T07:54:56.952Z,624
2019-01-08T07:55:56.917Z,704
2019-01-08T07:57:11.593Z,788
2019-01-08T07:57:56.943Z,828
2019-01-08T07:58:57.008Z,836
2019-01-08T07:59:56.981Z,980
2019-01-08T08:01:12.141Z,1484
2019-01-08T08:01:57.005Z,1680
2019-01-08T08:02:57.122Z,1716
2019-01-08T08:03:57.040Z,1460
2019-01-08T08:04:57.059Z,1300
2019-01-08T08:06:11.727Z,1060
2019-01-08T08:06:57.177Z,908
2019-01-08T08:07:57.118Z,596
2019-01-08T08:09:57.132Z,512
2019-01-08T08:11:57.162Z,404
2019-01-08T08:12:57.176Z,368
2019-01-08T08:13:57.189Z,340
2019-01-08T08:14:57.210Z,340
2019-01-08T08:15:57.224Z,364
2019-01-08T08:16:57.236Z,412
2019-01-08T08:17:57.265Z,484
2019-01-08T08:18:57.270Z,524
2019-01-08T08:21:12.005Z,560
2019-01-08T08:21:57.316Z,580
2019-01-08T08:23:11.989Z,536
2019-01-08T08:23:57.343Z,552
2019-01-08T08:24:58.447Z,572
2019-01-08T08:25:57.379Z,568
2019-01-08T08:26:57.391Z,540
2019-01-08T08:27:57.405Z,540
2019-01-08T08:29:12.100Z,524
2019-01-08T08:29:57.435Z,564
2019-01-08T08:31:05.651Z,452
2019-01-08T08:31:57.469Z,440
2019-01-08T08:32:57.491Z,404
2019-01-08T08:33:57.497Z,396
2019-01-08T08:35:12.180Z,356
2019-01-08T08:35:57.627Z,336
2019-01-08T08:36:57.540Z,344
2019-01-08T08:37:57.556Z,400
2019-01-08T08:38:57.578Z,332
2019-01-08T08:39:57.585Z,364
2019-01-08T08:40:57.605Z,368
2019-01-08T08:41:57.619Z,392
2019-01-08T08:42:57.643Z,368
2019-01-08T08:43:57.649Z,308
2019-01-08T08:45:57.682Z,332
2019-01-08T08:47:57.720Z,392
2019-01-08T08:49:12.394Z,524
2019-01-08T08:49:57.738Z,652
2019-01-08T08:51:12.518Z,824
2019-01-08T08:51:57.768Z,948
2019-01-08T08:52:57.791Z,1096
2019-01-08T08:53:59.736Z,1212
2019-01-08T08:54:57.813Z,1600
2019-01-08T08:56:12.494Z,1528
2019-01-08T08:56:57.852Z,1744
2019-01-08T08:57:57.903Z,2160
2019-01-08T08:58:57.874Z,2368
2019-01-08T08:59:57.890Z,2548
2019-01-08T09:01:12.570Z,2964
2019-01-08T09:01:57.933Z,3040
2019-01-08T09:03:12.607Z,3480
2019-01-08T09:03:57.957Z,3200
2019-01-08T09:04:57.971Z,2764
2019-01-08T09:05:57.984Z,2620
2019-01-08T09:06:57.999Z,2392
2019-01-08T09:07:58.017Z,1796
2019-01-08T09:08:58.031Z,1504
2019-01-08T09:09:58.056Z,1288
2019-01-08T09:10:58.062Z,1188
2019-01-08T09:11:58.075Z,1232
2019-01-08T09:12:59.968Z,988
2019-01-08T09:13:58.106Z,752
2019-01-08T09:14:58.128Z,688
2019-01-08T09:15:58.135Z,636
2019-01-08T09:17:12.899Z,776
2019-01-08T09:17:58.171Z,776
2019-01-08T09:18:58.184Z,908
2019-01-08T09:20:12.869Z,1080
2019-01-08T09:20:58.215Z,1012
2019-01-08T09:21:58.229Z,980
2019-01-08T09:22:58.245Z,976
2019-01-08T09:23:58.569Z,1024
2019-01-08T09:25:12.941Z,1120
2019-01-08T09:26:12.955Z,1372
2019-01-08T09:27:12.974Z,1252
2019-01-08T09:27:58.328Z,1292
2019-01-08T09:28:58.090Z,1344
2019-01-08T09:30:58.369Z,1232
2019-01-08T09:32:13.049Z,1092
2019-01-08T09:33:58.418Z,732
2019-01-08T09:34:58.433Z,584
2019-01-08T09:35:58.452Z,520
2019-01-08T09:36:58.217Z,436
2019-01-08T09:37:58.478Z,400
2019-01-08T09:38:58.493Z,444
2019-01-08T09:39:58.528Z,416
2019-01-08T09:41:58.538Z,500
2019-01-08T09:42:58.557Z,548
2019-01-08T09:44:13.234Z,760
2019-01-08T09:44:58.588Z,724
2019-01-08T09:45:58.602Z,756
2019-01-08T09:47:58.632Z,892
2019-01-08T09:49:58.668Z,1076
2019-01-08T09:50:58.678Z,1104
2019-01-08T09:51:58.691Z,1200
2019-01-08T09:52:58.707Z,964
2019-01-08T09:53:58.728Z,1064
2019-01-08T09:54:58.743Z,888
2019-01-08T09:55:58.756Z,792
2019-01-08T09:56:58.774Z,820
2019-01-08T09:57:58.789Z,776
2019-01-08T09:58:58.802Z,776
2019-01-08T09:59:58.818Z,676
2019-01-08T10:01:58.861Z,740
2019-01-08T10:02:58.869Z,748
2019-01-08T10:04:13.538Z,888
2019-01-08T10:04:58.891Z,1132
2019-01-08T10:05:59.003Z,1060
2019-01-08T10:06:58.676Z,1048
2019-01-08T10:07:58.690Z,1040
2019-01-08T10:08:58.956Z,1040
2019-01-08T10:10:13.634Z,1004
2019-01-08T10:10:58.980Z,1224
2019-01-08T10:11:58.997Z,1256
2019-01-08T10:13:13.676Z,1172
2019-01-08T10:13:59.034Z,1112
2019-01-08T10:14:59.056Z,1332
2019-01-08T10:15:59.061Z,1328
2019-01-08T10:17:13.737Z,1084
2019-01-08T10:18:13.755Z,1116
2019-01-08T10:18:59.108Z,1208
2019-01-08T10:20:13.788Z,1156
2019-01-08T10:21:13.806Z,1316
2019-01-08T10:21:59.153Z,1440
2019-01-08T10:22:58.918Z,1528
2019-01-08T10:24:13.849Z,1724
2019-01-08T10:24:59.199Z,1892
2019-01-08T10:25:59.211Z,1784
2019-01-08T10:27:13.893Z,1988
2019-01-08T10:27:59.240Z,1856
2019-01-08T10:28:59.260Z,1856
2019-01-08T10:29:59.473Z,1936
2019-01-08T10:30:59.296Z,2000
2019-01-08T10:31:59.306Z,1808
2019-01-08T10:33:13.982Z,1584
2019-01-08T10:33:59.338Z,1420
2019-01-08T10:34:59.636Z,1464
2019-01-08T10:36:14.027Z,1232
2019-01-08T10:36:59.385Z,1096
2019-01-08T10:37:59.406Z,1016
2019-01-08T10:38:59.410Z,884
2019-01-08T10:40:01.390Z,892
2019-01-08T10:40:59.451Z,1064
2019-01-08T10:41:59.456Z,1068
2019-01-08T10:42:59.483Z,1200
2019-01-08T10:43:59.495Z,1340
2019-01-08T10:44:59.508Z,1692
2019-01-08T10:45:59.526Z,1820
2019-01-08T10:46:59.546Z,1724
2019-01-08T10:47:59.558Z,1736
2019-01-08T10:48:59.577Z,1764
2019-01-08T10:49:59.586Z,1680
2019-01-08T10:50:59.601Z,1584
2019-01-08T10:52:14.278Z,1420
2019-01-08T10:52:59.635Z,1208
2019-01-08T10:54:14.317Z,1448
2019-01-08T10:54:59.659Z,1460
2019-01-08T10:55:59.678Z,1428
2019-01-08T10:56:59.693Z,1596
2019-01-08T10:59:07.359Z,1860
2019-01-08T11:00:14.401Z,1800
2019-01-08T11:00:59.749Z,1900
2019-01-08T11:01:59.764Z,1824
2019-01-08T11:03:59.796Z,1844
2019-01-08T11:05:14.479Z,1532
2019-01-08T11:05:59.579Z,1308
2019-01-08T11:07:59.862Z,1256
2019-01-08T11:08:59.880Z,1260
2019-01-08T11:10:14.656Z,1032
2019-01-08T11:10:59.908Z,1180
2019-01-08T11:11:59.921Z,1108
2019-01-08T11:12:59.941Z,1064
2019-01-08T11:13:59.950Z,960
2019-01-08T11:14:59.969Z,1036
2019-01-08T11:15:59.995Z,996
2019-01-08T11:17:14.666Z,1016
2019-01-08T11:19:00.034Z,900
2019-01-08T11:20:00.054Z,892
2019-01-08T11:21:00.062Z,888
2019-01-08T11:22:00.077Z,1076
2019-01-08T11:23:00.096Z,964
2019-01-08T11:24:00.104Z,796
2019-01-08T11:25:00.243Z,1040
2019-01-08T11:26:00.161Z,1212
2019-01-08T11:27:00.161Z,1648
2019-01-08T11:28:00.229Z,1768
2019-01-08T11:29:00.183Z,1356
2019-01-08T11:30:00.221Z,1348
2019-01-08T11:31:00.220Z,1108
2019-01-08T11:32:00.234Z,1100
2019-01-08T11:33:01.991Z,1164
2019-01-08T11:35:00.276Z,1076
2019-01-08T11:36:00.294Z,1196
2019-01-08T11:37:00.306Z,1268
2019-01-08T11:38:00.327Z,1276
2019-01-08T11:39:15.496Z,1404
2019-01-08T11:40:00.355Z,1644
2019-01-08T11:41:00.369Z,1916
2019-01-08T11:42:00.384Z,2056
2019-01-08T11:43:00.421Z,2152
2019-01-08T11:44:00.421Z,2336
2019-01-08T11:45:00.433Z,2184
2019-01-08T11:46:00.445Z,2468
2019-01-08T11:47:00.464Z,2500
2019-01-08T11:48:08.534Z,1992
2019-01-08T11:49:00.493Z,1620
2019-01-08T11:50:00.513Z,1612
2019-01-08T11:51:00.520Z,1408
2019-01-08T11:52:00.578Z,1420
2019-01-08T11:53:15.221Z,1580
2019-01-08T11:55:15.250Z,1420
2019-01-08T11:56:01.492Z,1276
2019-01-08T11:57:00.617Z,1012
2019-01-08T11:58:00.636Z,932
2019-01-08T11:59:00.650Z,912
2019-01-08T12:00:00.668Z,848
2019-01-08T12:01:00.766Z,796
2019-01-08T12:02:05.076Z,804
2019-01-08T12:03:00.861Z,844
2019-01-08T12:04:00.727Z,1128
2019-01-08T12:05:15.402Z,1032
2019-01-08T12:06:02.177Z,1208
2019-01-08T12:07:00.772Z,1368
2019-01-08T12:08:00.797Z,1644
2019-01-08T12:09:00.663Z,1776
2019-01-08T12:11:30.164Z,2076
2019-01-08T12:12:00.849Z,1996
2019-01-08T12:13:00.874Z,2032
2019-01-08T12:14:00.882Z,1924
2019-01-08T12:15:00.896Z,1664
2019-01-08T12:16:00.910Z,1912
2019-01-08T12:17:00.928Z,1744
2019-01-08T12:18:01.030Z,1200
2019-01-08T12:19:00.958Z,1220
2019-01-08T12:20:00.979Z,1480
2019-01-08T12:21:00.988Z,1232
2019-01-08T12:22:15.669Z,936
2019-01-08T12:23:01.021Z,832
2019-01-08T12:24:01.180Z,772
2019-01-08T12:25:01.054Z,748
2019-01-08T12:26:01.075Z,756
2019-01-08T12:27:15.745Z,924
2019-01-08T12:28:01.102Z,852
2019-01-08T12:29:01.205Z,964
2019-01-08T12:30:01.129Z,1220
2019-01-08T12:31:01.217Z,1192
2019-01-08T12:32:10.791Z,1528
2019-01-08T12:33:01.185Z,1636
2019-01-08T12:34:01.192Z,1524
2019-01-08T12:35:01.204Z,1432
2019-01-08T12:36:01.229Z,1328
2019-01-08T12:37:01.235Z,1132
2019-01-08T12:38:01.254Z,1108
2019-01-08T12:39:15.932Z,1052
2019-01-08T12:41:01.302Z,832
2019-01-08T12:42:15.988Z,840
2019-01-08T12:43:01.335Z,784
2019-01-08T12:44:02.909Z,796
2019-01-08T12:45:01.364Z,796
2019-01-08T12:46:01.389Z,668
2019-01-08T12:47:01.398Z,664
2019-01-08T12:48:01.411Z,720
2019-01-08T12:49:01.427Z,748
2019-01-08T12:50:01.678Z,804
2019-01-08T12:51:01.586Z,904
2019-01-08T12:52:01.479Z,904
2019-01-08T12:53:01.491Z,1176
2019-01-08T12:54:01.522Z,1052
2019-01-08T12:55:01.523Z,836
2019-01-08T12:56:01.544Z,964
2019-01-08T12:57:01.567Z,792
2019-01-08T12:58:01.622Z,832
2019-01-08T12:59:01.592Z,1072
2019-01-08T13:00:01.614Z,1124
2019-01-08T13:01:16.283Z,1080
2019-01-08T13:03:01.654Z,1168
2019-01-08T13:04:01.663Z,1000
2019-01-08T13:05:01.681Z,1040
2019-01-08T13:06:16.359Z,868
2019-01-08T13:07:01.723Z,692
2019-01-08T13:08:16.387Z,704
2019-01-08T13:09:01.741Z,636
2019-01-08T13:10:16.420Z,828
2019-01-08T13:12:01.791Z,748
2019-01-08T13:13:01.805Z,576
2019-01-08T13:14:16.485Z,416
2019-01-08T13:15:01.835Z,464
2019-01-08T13:16:01.863Z,464
2019-01-08T13:17:01.872Z,664
2019-01-08T13:18:01.884Z,776
2019-01-08T13:19:01.897Z,724
2019-01-08T13:21:01.930Z,856
2019-01-08T13:22:01.944Z,972
2019-01-08T13:23:02.054Z,904
2019-01-08T13:24:01.975Z,1092
2019-01-08T13:25:16.657Z,1080
2019-01-08T13:26:02.011Z,1076
2019-01-08T13:27:02.027Z,972
2019-01-08T13:28:16.704Z,944
2019-01-08T13:29:02.061Z,960
2019-01-08T13:30:31.455Z,916
2019-01-08T13:31:02.087Z,1092
2019-01-08T13:32:02.002Z,1140
2019-01-08T13:33:02.134Z,1112
2019-01-08T13:34:02.241Z,1024
2019-01-08T13:35:02.150Z,868
2019-01-08T13:36:02.221Z,760
2019-01-08T13:37:02.264Z,744
2019-01-08T13:38:02.200Z,668
2019-01-08T13:39:02.224Z,568
2019-01-08T13:40:17.338Z,528
2019-01-08T13:41:03.956Z,512
2019-01-08T13:42:16.924Z,680
2019-01-08T13:43:02.286Z,524
2019-01-08T13:44:02.290Z,464
2019-01-08T13:45:02.316Z,544
2019-01-08T13:46:16.740Z,504
2019-01-08T13:47:02.339Z,464
2019-01-08T13:48:02.358Z,460
2019-01-08T13:49:02.470Z,684
2019-01-08T13:50:02.394Z,664
2019-01-08T13:51:02.404Z,684
2019-01-08T13:52:02.417Z,728
2019-01-08T13:53:02.437Z,668
2019-01-08T13:54:17.113Z,632
2019-01-08T13:55:17.126Z,660
2019-01-08T13:56:02.490Z,732
2019-01-08T13:57:02.505Z,736
2019-01-08T13:58:02.515Z,784
2019-01-08T13:59:02.535Z,848
2019-01-08T14:00:02.544Z,908
2019-01-08T14:01:02.566Z,876
2019-01-08T14:02:17.238Z,780
2019-01-08T14:03:02.594Z,680
2019-01-08T14:04:02.605Z,632
2019-01-08T14:05:02.662Z,624
2019-01-08T14:06:02.639Z,556
2019-01-08T14:07:02.648Z,552
2019-01-08T14:08:02.668Z,512
2019-01-08T14:09:02.782Z,488
2019-01-08T14:10:02.710Z,512
2019-01-08T14:12:02.830Z,548
2019-01-08T14:15:02.780Z,436
2019-01-08T14:16:02.796Z,376
2019-01-08T14:17:17.471Z,464
2019-01-08T14:18:02.835Z,528
2019-01-08T14:19:02.842Z,560
2019-01-08T14:20:02.856Z,652
2019-01-08T14:21:02.877Z,604
2019-01-08T14:22:02.987Z,416
2019-01-08T14:23:02.911Z,472
2019-01-08T14:24:03.551Z,528
2019-01-08T14:25:02.935Z,516
2019-01-08T14:26:02.946Z,420
2019-01-08T14:27:11.552Z,448
2019-01-08T14:28:02.983Z,408
2019-01-08T14:29:03.005Z,424
2019-01-08T14:30:03.009Z,424
2019-01-08T14:31:03.025Z,396
2019-01-08T14:32:03.041Z,392
2019-01-08T14:33:03.063Z,320
2019-01-08T14:35:03.092Z,244
2019-01-08T14:36:03.107Z,260
2019-01-08T14:37:03.119Z,276
2019-01-08T14:38:03.132Z,276
2019-01-08T14:39:03.157Z,264
2019-01-08T14:40:03.187Z,248
2019-01-08T14:41:17.863Z,212
2019-01-08T14:42:17.859Z,204
2019-01-08T14:43:03.215Z,220
2019-01-08T14:45:03.253Z,204
2019-01-08T14:46:17.931Z,188
2019-01-08T14:47:03.382Z,184
2019-01-08T14:48:03.287Z,184
2019-01-08T14:49:17.967Z,152
2019-01-08T14:50:03.324Z,140
2019-01-08T14:51:03.346Z,136
2019-01-08T14:52:03.348Z,120
2019-01-08T14:53:03.376Z,120
2019-01-08T14:54:03.378Z,120
2019-01-08T14:55:03.410Z,116
2019-01-08T14:56:03.429Z,92
2019-01-08T14:57:03.432Z,84
2019-01-08T14:58:03.450Z,72
2019-01-08T14:59:18.119Z,88
2019-01-08T15:00:03.487Z,80
2019-01-08T15:01:03.493Z,80
2019-01-08T15:02:18.266Z,92
2019-01-08T15:03:18.181Z,88
2019-01-08T15:04:03.537Z,92
2019-01-08T15:05:18.218Z,92
2019-01-08T15:06:03.568Z,88
2019-01-08T15:07:03.586Z,88
2019-01-08T15:08:18.264Z,80
2019-01-08T15:09:03.611Z,80
2019-01-08T15:10:06.135Z,80
2019-01-08T15:11:18.311Z,68